Kasane, Botswana

3:14 PM CAT on December 11, 2016 (GMT +0200)
Kasane | | Change Station

Elev 3281 ft 17.83 °S, 25.16 °E | Updated 14 minutes ago

Mostly Cloudy
Mostly Cloudy
73 °F
Feels Like 73 °F
N
14
Wind Variable Wind from NE

Today
High -- | Low -- °F
--% Chance of Precip.
Yesterday
High -- | Low -- °F
Precip. -- in
Pressure 29.98 in
Visibility 6.2 miles
Clouds Scattered Clouds 3000 ft
Mostly Cloudy 7000 ft
Dew Point 63 °F
Humidity 69%
Rainfall 0.00 in
Snow Depth Not available.
5:37 AM 6:48 PM
Waxing Gibbous, 91% visible
METAR FBKE 111300Z 05012KT 9999 SCT030 BKN070 23/17 Q1015
Pressure 29.98 in
Visibility 6.2 miles
Clouds Scattered Clouds 3000 ft
Mostly Cloudy 7000 ft
Dew Point 63 °F
Humidity 69%
Rainfall 0.00 in
Snow Depth Not available.
5:37 AM 6:48 PM
Waxing Gibbous, 91% visible
METAR FBKE 111300Z 05012KT 9999 SCT030 BKN070 23/17 Q1015

10-Day Weather Forecast

No radar image for this location.
×

Almanac

Astronomy

Dec. 11, 2016 Rise Set
Actual Time
Civil Twilight
Nautical Twilight
Astronomical Twilight
Moon
Length of Visible Light
Length of Day
Tomorrow will be .
, % of the Moon is Illuminated

Today's Extremes

Country Highs Country Lows

Community

WunderPhotos

Upload Photos

1,956,714 photos uploaded!

WunderBlog® & News

Nearby

Air Quality

  Air Quality AQ Index Pollutant
Not available.

Snow Depth

Station Depth Elevation

Earthquake Activity

City Distance Mag. Time & Date
Minimum magnitude displayed is 2.5.

Coastal Water Temperatures

Place Temperature

Stations

Nearby Weather Stations

Station Location Temp. Windchill Dew Point Humidity Wind Precip. Elev Updated Type